This is the latest recevied weather packets stored in our database for station/object I8ZSE-10. If no packets are shown the sender has not sent any weather packets the latest 10 day(s).
| Time | Temp. | Humidity | Pressure | Rain* | Wind** | Luminosity | Snow |
|---|---|---|---|---|---|---|---|
| 1777974608 | 17.22° C | 40% | 1018.5 hPa | 0 mm | - | - | - |
| 1777974008 | 17.22° C | 41% | 1018.6 hPa | 0 mm | - | - | - |
| 1777973409 | 17.78° C | 43% | 1018.7 hPa | 0 mm | - | - | - |
| 1777972808 | 17.78° C | 43% | 1018.7 hPa | 0 mm | - | - | - |
| 1777972209 | 17.22° C | 44% | 1018.6 hPa | 0 mm | - | - | - |
| 1777971609 | 17.78° C | 44% | 1018.6 hPa | 0 mm | - | - | - |
| 1777971008 | 17.22° C | 44% | 1018.6 hPa | 0 mm | - | - | - |
| 1777970408 | 17.22° C | 45% | 1018.5 hPa | 0 mm | - | - | - |
| 1777969808 | 16.67° C | 46% | 1018.4 hPa | 0 mm | - | - | - |
| 1777969208 | 16.67° C | 46% | 1018.3 hPa | 0 mm | - | - | - |
| 1777968608 | 16.67° C | 47% | 1018.3 hPa | 0 mm | - | - | - |
| 1777968009 | 16.67° C | 48% | 1018.3 hPa | 0 mm | - | - | - |
| 1777967408 | 16.11° C | 48% | 1018.2 hPa | 0 mm | - | - | - |
| 1777966808 | 16.11° C | 49% | 1018.2 hPa | 0 mm | - | - | - |
| 1777966208 | 16.11° C | 50% | 1018.1 hPa | 0 mm | - | - | - |
| 1777965608 | 16.11° C | 51% | 1018.1 hPa | 0 mm | - | - | - |
| 1777965008 | 16.11° C | 52% | 1018.1 hPa | 0 mm | - | - | - |
| 1777964409 | 16.11° C | 54% | 1018.1 hPa | 0 mm | - | - | - |
| 1777963808 | 16.11° C | 55% | 1018.2 hPa | 0 mm | - | - | - |
| 1777963209 | 15.56° C | 58% | 1018.1 hPa | 0 mm | - | - | - |
| 1777962609 | 15° C | 61% | 1017.9 hPa | 0 mm | - | - | - |
| 1777962008 | 14.44° C | 64% | 1017.7 hPa | 0 mm | - | - | - |
| 1777961408 | 13.89° C | 67% | 1017.5 hPa | 0 mm | - | - | - |
| 1777960808 | 13.89° C | 68% | 1017.4 hPa | 0 mm | - | - | - |
| 1777960208 | 13.33° C | 68% | 1017.4 hPa | 0 mm | - | - | - |
* Rain latest hour (hover to see other rain measurements)
** Current wind speed in m/s (hover to see current wind gust speed)